Time;durP1;ratioP1;P1;durP2;ratioP2;P2;SDS_P1;SDS_P2;PMS_P1;PMS_P2;Temp;Humidity;BMP_temperature;BMP_pressure;BME280_temperature;BME280_humidity;BME280_pressure;Samples;Min_cycle;Max_cycle;Signal;HPM_P1;HPM_P2
2023/09/27 00:00:10;;;;;;;15.38;13.27;;;15.10;99.90;;;;;;5112167;27;20940;-77
2023/09/27 00:03:04;;;;;;;18.25;13.63;;;15.00;99.90;;;;;;5093038;27;20047;-77
2023/09/27 00:06:24;;;;;;;17.13;14.05;;;15.00;99.90;;;;;;5111274;27;20053;-78
2023/09/27 00:09:21;;;;;;;15.15;12.48;;;15.00;99.90;;;;;;5117472;27;21460;-78
2023/09/27 00:15:58;;;;;;;18.15;13.95;;;14.70;99.90;;;;;;5082627;27;20130;-78
2023/09/27 00:18:48;;;;;;;17.70;14.07;;;14.90;99.90;;;;;;5075148;27;20619;-81
2023/09/27 00:21:43;;;;;;;14.65;13.05;;;14.90;99.90;;;;;;5111751;27;20066;-77
2023/09/27 00:24:46;;;;;;;14.00;12.50;;;14.90;99.90;;;;;;5110276;27;21812;-78
2023/09/27 00:27:38;;;;;;;15.30;13.00;;;14.90;99.90;;;;;;5091299;27;20047;-78
2023/09/27 00:30:37;;;;;;;14.73;12.32;;;14.90;99.90;;;;;;5113875;27;20043;-78
2023/09/27 00:33:29;;;;;;;17.20;12.98;;;15.00;99.90;;;;;;5093909;27;20425;-79
2023/09/27 00:36:23;;;;;;;15.90;13.07;;;15.00;99.90;;;;;;5093944;27;20806;-79
2023/09/27 00:39:15;;;;;;;14.55;12.77;;;14.90;99.90;;;;;;5083280;27;20127;-80
2023/09/27 00:42:05;;;;;;;13.65;11.55;;;14.90;99.90;;;;;;5112038;27;20043;-80
2023/09/27 00:45:13;;;;;;;16.13;13.50;;;15.00;99.90;;;;;;5085794;27;20688;-80
2023/09/27 00:48:03;;;;;;;13.60;11.68;;;15.00;99.90;;;;;;5098204;27;20933;-78
2023/09/27 00:50:55;;;;;;;13.38;11.95;;;15.00;99.90;;;;;;5091224;27;20078;-80
2023/09/27 00:53:58;;;;;;;12.95;11.65;;;14.90;99.90;;;;;;5094770;27;20047;-77
2023/09/27 00:57:30;;;;;;;13.70;12.27;;;15.00;99.90;;;;;;5098032;27;20042;-76
2023/09/27 01:00:28;;;;;;;14.32;11.70;;;15.00;99.90;;;;;;5107730;27;20039;-76
2023/09/27 01:03:23;;;;;;;13.30;11.90;;;15.00;99.90;;;;;;5108351;27;20054;-77
2023/09/27 01:06:15;;;;;;;14.32;11.75;;;15.00;99.90;;;;;;5107332;27;20039;-80
2023/09/27 01:09:17;;;;;;;13.20;11.77;;;15.00;99.90;;;;;;5089726;27;20466;-78
2023/09/27 01:12:09;;;;;;;14.25;11.88;;;15.00;99.90;;;;;;5109203;27;20063;-78
2023/09/27 01:15:45;;;;;;;14.20;12.70;;;15.00;99.90;;;;;;5097273;27;20498;-80
2023/09/27 01:18:47;;;;;;;13.13;11.63;;;15.00;99.90;;;;;;5090503;27;20089;-79
2023/09/27 01:21:33;;;;;;;12.77;10.93;;;15.00;99.90;;;;;;5091120;27;20055;-78
2023/09/27 01:34:56;;;;;;;15.70;11.80;;;14.90;99.90;;;;;;5108410;27;20135;-77
2023/09/27 01:37:56;;;;;;;16.00;12.70;;;14.90;99.90;;;;;;5090723;27;20047;-77
2023/09/27 01:41:09;;;;;;;14.40;11.60;;;15.10;99.90;;;;;;5107890;27;20035;-78
2023/09/27 01:44:01;;;;;;;14.07;11.20;;;15.30;99.90;;;;;;5073552;28;20134;-79
2023/09/27 01:46:53;;;;;;;15.75;11.52;;;14.90;99.90;;;;;;5072895;28;20071;-79
2023/09/27 01:49:39;;;;;;;14.90;10.25;;;15.40;99.90;;;;;;5055024;28;20210;-79
2023/09/27 01:52:34;;;;;;;13.68;10.25;;;15.50;99.90;;;;;;5058899;28;20147;-80
2023/09/27 01:55:27;;;;;;;15.15;11.05;;;15.50;99.90;;;;;;5035442;28;20482;-78
2023/09/27 01:58:46;;;;;;;14.18;10.50;;;15.50;99.90;;;;;;5056170;28;20110;-78
2023/09/27 02:01:49;;;;;;;15.07;10.00;;;16.00;99.90;;;;;;5072142;28;20047;-80
2023/09/27 02:08:15;;;;;;;12.40;9.50;;;15.30;99.90;;;;;;5072758;28;20816;-79
2023/09/27 02:11:07;;;;;;;11.03;9.27;;;15.70;99.90;;;;;;5052765;28;20166;-78
2023/09/27 02:13:57;;;;;;;14.85;9.18;;;15.80;99.90;;;;;;5075137;28;20051;-77
2023/09/27 02:16:51;;;;;;;12.50;9.30;;;15.80;99.90;;;;;;5056336;28;20051;-78
2023/09/27 02:19:37;;;;;;;11.40;8.18;;;15.80;99.90;;;;;;5073348;28;20084;-78
2023/09/27 02:22:23;;;;;;;;;;;15.90;99.90;;;;;;5076215;28;20048;-77
2023/09/27 02:25:39;;;;;;;12.07;8.23;;;15.90;99.90;;;;;;5071407;28;19935;-78
2023/09/27 02:28:31;;;;;;;11.95;8.40;;;15.90;99.90;;;;;;5056457;28;20060;-78
2023/09/27 02:31:44;;;;;;;15.90;8.82;;;15.90;99.90;;;;;;5057139;28;20048;-78
2023/09/27 02:34:47;;;;;;;13.85;9.65;;;16.00;99.90;;;;;;5056946;28;20048;-78
2023/09/27 02:37:44;;;;;;;17.80;9.48;;;16.00;99.90;;;;;;5056286;28;20067;-77
2023/09/27 02:40:50;;;;;;;15.77;10.82;;;16.00;99.90;;;;;;5040851;28;20083;-80
2023/09/27 02:44:03;;;;;;;21.13;11.30;;;16.10;99.90;;;;;;5060633;28;20047;-79
2023/09/27 02:47:03;;;;;;;17.17;12.25;;;16.20;99.90;;;;;;5050726;27;20894;-77
2023/09/27 02:50:11;;;;;;;18.35;11.20;;;16.20;99.90;;;;;;5067807;27;20053;-77
2023/09/27 02:53:14;;;;;;;15.50;12.02;;;16.20;99.90;;;;;;5111215;27;20043;-78
2023/09/27 02:56:12;;;;;;;16.70;13.07;;;16.20;99.90;;;;;;5091856;27;20035;-77
2023/09/27 02:58:59;;;;;;;17.33;12.43;;;17.20;99.90;;;;;;5079629;27;20087;-78
2023/09/27 03:02:03;;;;;;;17.70;13.35;;;16.30;99.90;;;;;;5081282;27;20065;-80
2023/09/27 03:05:23;;;;;;;21.30;12.88;;;16.30;99.90;;;;;;5101045;27;20046;-81
2023/09/27 03:08:19;;;;;;;21.38;12.75;;;16.30;99.90;;;;;;5092647;27;20039;-79
2023/09/27 03:11:14;;;;;;;;;;;16.40;99.90;;;;;;5111253;27;20051;-78
2023/09/27 03:14:09;;;;;;;16.20;12.23;;;16.40;99.90;;;;;;5095714;27;19985;-79
2023/09/27 03:17:03;;;;;;;18.83;13.27;;;16.40;99.90;;;;;;5109263;27;20052;-80
2023/09/27 03:20:15;;;;;;;16.63;12.25;;;16.40;99.90;;;;;;5111428;27;20427;-78
2023/09/27 03:23:10;;;;;;;16.00;11.85;;;16.50;99.90;;;;;;5109860;27;20055;-79
2023/09/27 03:26:04;;;;;;;19.60;12.20;;;16.50;99.90;;;;;;5109752;27;20095;-78
2023/09/27 03:29:23;;;;;;;16.45;11.80;;;16.50;99.90;;;;;;5091549;27;20043;-80
2023/09/27 03:32:32;;;;;;;18.17;11.40;;;16.50;99.90;;;;;;5090758;27;20039;-80
2023/09/27 03:35:38;;;;;;;20.30;12.63;;;16.50;99.90;;;;;;5078768;27;20096;-76
2023/09/27 03:38:39;;;;;;;17.30;12.07;;;16.50;99.90;;;;;;5084153;27;20059;-78
2023/09/27 03:41:28;;;;;;;16.33;12.93;;;16.50;99.90;;;;;;5075625;27;20059;-80
2023/09/27 03:47:33;;;;;;;20.33;13.20;;;16.50;99.90;;;;;;5051774;27;20051;-77
2023/09/27 03:54:00;;;;;;;24.25;12.82;;;16.50;99.90;;;;;;5101551;27;21379;-77
2023/09/27 03:57:01;;;;;;;20.50;14.93;;;16.50;99.90;;;;;;5107806;27;20148;-78
2023/09/27 03:59:52;;;;;;;21.35;13.75;;;16.50;99.90;;;;;;5091243;27;20074;-80
2023/09/27 04:02:32;;;;;;;26.63;15.20;;;16.00;99.90;;;;;;5075219;27;20055;-80
2023/09/27 04:05:23;;;;;;;23.50;14.20;;;16.70;99.90;;;;;;5080486;27;20789;-80
2023/09/27 04:08:26;;;;;;;21.70;14.88;;;16.60;99.90;;;;;;5086799;27;20422;-78
2023/09/27 04:11:29;;;;;;;21.90;14.32;;;16.60;99.90;;;;;;5107450;27;20078;-78
2023/09/27 04:14:23;;;;;;;24.35;15.32;;;16.60;99.90;;;;;;5097065;27;20040;-77
2023/09/27 04:17:14;;;;;;;20.70;15.05;;;16.60;99.90;;;;;;5090407;27;20165;-77
2023/09/27 04:20:25;;;;;;;26.35;14.95;;;16.50;99.90;;;;;;5080294;27;20524;-80
2023/09/27 04:23:25;;;;;;;25.55;15.02;;;16.60;99.90;;;;;;5091875;27;20081;-78
2023/09/27 04:26:26;;;;;;;25.27;15.13;;;16.60;99.90;;;;;;5109121;27;20039;-78
2023/09/27 04:29:30;;;;;;;22.83;15.55;;;16.60;99.90;;;;;;5110167;27;20055;-78
2023/09/27 04:32:23;;;;;;;23.05;15.63;;;16.60;99.90;;;;;;5090421;27;20044;-77
2023/09/27 04:35:33;;;;;;;26.80;15.23;;;16.60;99.90;;;;;;5109915;27;20439;-79
2023/09/27 04:38:21;;;;;;;28.67;15.02;;;16.60;99.90;;;;;;5062316;27;20907;-80
2023/09/27 04:41:17;;;;;;;27.95;14.13;;;16.60;99.90;;;;;;5107382;27;20123;-78
2023/09/27 04:44:17;;;;;;;24.23;15.27;;;16.60;99.90;;;;;;5086512;27;20196;-77
2023/09/27 04:47:18;;;;;;;23.10;13.18;;;16.50;99.90;;;;;;5090273;27;20057;-79
2023/09/27 04:50:25;;;;;;;24.05;13.85;;;16.50;99.90;;;;;;5108022;27;20409;-78
2023/09/27 04:53:20;;;;;;;26.38;13.90;;;16.50;99.90;;;;;;5090802;27;20527;-78
2023/09/27 04:56:24;;;;;;;24.17;12.98;;;16.50;99.90;;;;;;5108984;27;21093;-78
2023/09/27 04:59:31;;;;;;;20.23;12.43;;;16.50;99.90;;;;;;5096837;27;20134;-80
2023/09/27 05:02:41;;;;;;;25.13;12.55;;;16.40;99.90;;;;;;5091217;27;20087;-77
2023/09/27 05:05:29;;;;;;;19.77;11.85;;;16.40;99.90;;;;;;5105163;27;20588;-78
2023/09/27 05:08:21;;;;;;;15.95;10.98;;;16.40;99.90;;;;;;5080779;27;20535;-79
2023/09/27 05:11:12;;;;;;;22.55;12.95;;;16.40;99.90;;;;;;5091168;27;20795;-78
2023/09/27 05:14:07;;;;;;;25.15;13.25;;;16.40;99.90;;;;;;5107163;27;20472;-78
2023/09/27 05:17:14;;;;;;;22.55;13.20;;;16.40;99.90;;;;;;5092519;27;20055;-84
2023/09/27 05:20:16;;;;;;;20.25;11.95;;;16.30;99.90;;;;;;5095141;27;20065;-77
2023/09/27 05:23:26;;;;;;;17.13;11.10;;;16.30;99.90;;;;;;5070910;27;20521;-80
2023/09/27 05:26:11;;;;;;;20.48;11.25;;;16.30;99.90;;;;;;5073719;27;20111;-79
2023/09/27 05:28:38;;;;;;;17.13;10.65;;;16.20;99.90;;;;;;5106074;27;20051;-83
2023/09/27 05:31:06;;;;;;;19.33;10.70;;;16.20;99.90;;;;;;5079165;27;20062;-80
2023/09/27 05:33:32;;;;;;;19.00;11.20;;;16.10;99.90;;;;;;5080495;27;20046;-79
2023/09/27 05:36:04;;;;;;;16.83;10.80;;;16.30;99.90;;;;;;5057587;28;21561;-83
2023/09/27 05:39:08;;;;;;;18.02;11.55;;;16.00;99.90;;;;;;5041426;28;20052;-79
2023/09/27 05:41:58;;;;;;;16.42;10.48;;;15.90;99.90;;;;;;5072663;28;20064;-79
2023/09/27 05:44:24;;;;;;;21.27;11.68;;;15.90;99.90;;;;;;5069472;28;20074;-80
2023/09/27 05:46:50;;;;;;;17.17;11.35;;;15.80;99.90;;;;;;5057465;28;20539;-83
2023/09/27 05:49:18;;;;;;;16.50;9.70;;;15.80;99.90;;;;;;5042381;28;20091;-80
2023/09/27 05:51:44;;;;;;;15.98;10.35;;;15.70;99.90;;;;;;5040978;28;20110;-75
2023/09/27 05:54:54;;;;;;;16.38;10.02;;;15.60;99.90;;;;;;5039832;28;20056;-81
2023/09/27 06:01:04;;;;;;;16.80;10.35;;;15.50;99.90;;;;;;5068873;28;20101;-79
2023/09/27 06:04:16;;;;;;;17.37;10.97;;;15.40;99.90;;;;;;5056800;28;20078;-78
2023/09/27 06:07:20;;;;;;;16.08;9.43;;;15.30;99.90;;;;;;5068971;27;20309;-74
2023/09/27 06:10:55;;;;;;;18.65;10.75;;;15.30;99.90;;;;;;5096667;27;20054;-73
2023/09/27 06:13:58;;;;;;;19.08;11.10;;;15.30;99.90;;;;;;5094285;27;20055;-74
2023/09/27 06:23:19;;;;;;;17.00;12.98;;;15.30;99.90;;;;;;5036290;28;20479;-73
2023/09/27 06:26:23;;;;;;;16.38;12.43;;;15.30;99.90;;;;;;5055616;28;20049;-72
2023/09/27 06:29:25;;;;;;;20.17;14.05;;;15.20;99.90;;;;;;5039589;28;20056;-73
2023/09/27 06:32:26;;;;;;;18.10;15.13;;;15.20;99.90;;;;;;4968787;28;20070;-73
2023/09/27 06:35:12;;;;;;;21.40;15.00;;;15.20;99.90;;;;;;5056108;28;20148;-74
2023/09/27 06:38:00;;;;;;;23.50;17.23;;;15.20;99.90;;;;;;5082876;27;20490;-73
2023/09/27 06:41:28;;;;;;;20.48;16.95;;;15.20;99.90;;;;;;5119111;27;20047;-74
2023/09/27 06:44:33;;;;;;;;;;;15.30;99.90;;;;;;5098390;27;20059;-75
2023/09/27 06:47:34;;;;;;;20.25;16.70;;;15.30;99.90;;;;;;5083638;27;19927;-73
2023/09/27 06:50:43;;;;;;;23.50;16.77;;;15.30;99.90;;;;;;5095102;27;20483;-74
2023/09/27 06:53:20;;;;;;;22.05;17.52;;;15.40;99.90;;;;;;5083250;27;21013;-72
2023/09/27 06:59:36;;;;;;;25.50;19.83;;;15.50;99.90;;;;;;5086052;27;20052;-74
2023/09/27 07:02:16;;;;;;;27.25;20.77;;;15.50;99.90;;;;;;5086187;28;20116;-72
2023/09/27 07:05:21;;;;;;;20.88;18.27;;;15.60;99.90;;;;;;5096816;28;20568;-74
2023/09/27 07:08:33;;;;;;;24.17;19.55;;;15.60;99.90;;;;;;5079543;28;20506;-74
2023/09/27 07:15:17;;;;;;;26.02;20.50;;;15.80;99.90;;;;;;5022788;28;20052;-74
2023/09/27 07:21:55;;;;;;;27.63;22.40;;;16.00;99.90;;;;;;5038820;28;20067;-74
2023/09/27 07:25:14;;;;;;;25.83;22.08;;;15.50;99.90;;;;;;5033969;28;20176;-74
2023/09/27 07:28:04;;;;;;;27.40;22.00;;;16.10;99.90;;;;;;5033327;28;20083;-74
2023/09/27 07:31:17;;;;;;;31.40;22.65;;;16.20;99.90;;;;;;5045478;28;20045;-74
2023/09/27 07:34:14;;;;;;;35.00;25.30;;;16.20;99.90;;;;;;4978769;28;20056;-73
2023/09/27 07:39:52;;;;;;;26.33;22.08;;;16.50;99.90;;;;;;5021673;28;20114;-74
2023/09/27 07:43:19;;;;;;;30.08;23.17;;;16.50;99.90;;;;;;5042356;28;20063;-73
2023/09/27 07:49:10;;;;;;;28.88;22.38;;;16.80;99.90;;;;;;5106143;27;20092;-74
2023/09/27 07:51:49;;;;;;;30.23;22.90;;;16.90;99.90;;;;;;5081757;27;20107;-74
2023/09/27 07:55:17;;;;;;;29.80;23.15;;;16.90;99.90;;;;;;5118533;27;20574;-74
2023/09/27 07:58:24;;;;;;;27.38;21.50;;;17.00;99.90;;;;;;5105028;27;20039;-73
2023/09/27 08:01:37;;;;;;;28.95;22.60;;;17.10;99.90;;;;;;5085231;27;20047;-74
2023/09/27 08:04:44;;;;;;;29.52;21.70;;;17.20;99.90;;;;;;5092964;27;20537;-75
2023/09/27 08:08:06;;;;;;;28.30;21.75;;;17.20;99.90;;;;;;5063214;27;20056;-73
2023/09/27 08:11:14;;;;;;;27.73;19.63;;;17.40;99.90;;;;;;5100129;27;20083;-73
2023/09/27 08:13:56;;;;;;;27.80;19.40;;;17.50;99.90;;;;;;5116424;27;20059;-74
2023/09/27 08:17:04;;;;;;;22.75;16.95;;;17.50;99.90;;;;;;5111867;27;20046;-73
2023/09/27 08:19:50;;;;;;;26.92;19.52;;;17.70;99.90;;;;;;5087981;27;20082;-74
2023/09/27 08:22:16;;;;;;;26.60;19.27;;;17.80;99.90;;;;;;5096821;27;20066;-71
2023/09/27 08:24:49;;;;;;;24.45;16.88;;;17.90;99.90;;;;;;5069612;27;20100;-73
2023/09/27 08:27:37;;;;;;;24.38;17.45;;;18.00;99.90;;;;;;5037370;28;20053;-73
2023/09/27 08:30:29;;;;;;;23.55;16.35;;;18.10;99.90;;;;;;5033874;28;20049;-73
2023/09/27 08:33:25;;;;;;;20.38;15.40;;;18.20;99.90;;;;;;4997695;28;20060;-73
2023/09/27 08:36:31;;;;;;;21.70;15.80;;;18.30;99.90;;;;;;5025295;28;20061;-73
2023/09/27 08:39:38;;;;;;;22.38;13.55;;;18.50;99.90;;;;;;5005554;28;20066;-71
2023/09/27 08:42:43;;;;;;;21.00;14.77;;;18.70;99.90;;;;;;5034625;28;20079;-75
2023/09/27 08:45:39;;;;;;;22.45;14.32;;;18.50;99.90;;;;;;5002094;28;20388;-75
2023/09/27 08:48:34;;;;;;;20.02;14.18;;;18.60;99.90;;;;;;5056361;28;20052;-75
2023/09/27 08:51:37;;;;;;;22.88;15.90;;;18.70;99.90;;;;;;4990632;28;20049;-75
2023/09/27 08:55:22;;;;;;;19.88;14.73;;;18.80;99.90;;;;;;5033968;28;20095;-78
2023/09/27 08:58:31;;;;;;;;;;;18.80;99.90;;;;;;5034989;28;20040;-76
2023/09/27 09:01:57;;;;;;;19.63;13.70;;;18.80;99.90;;;;;;5018008;28;19944;-76
2023/09/27 09:05:00;;;;;;;19.67;13.57;;;18.80;99.90;;;;;;5045360;28;20053;-76
2023/09/27 09:08:15;;;;;;;20.98;13.40;;;18.80;99.90;;;;;;5074135;28;20075;-77
2023/09/27 09:11:25;;;;;;;21.45;14.35;;;18.80;99.90;;;;;;5043494;28;20052;-77
2023/09/27 09:17:50;;;;;;;18.63;13.77;;;18.90;99.90;;;;;;5053034;28;20052;-79
2023/09/27 09:20:21;;;;;;;20.83;13.48;;;18.90;99.90;;;;;;5046696;28;20655;-76
2023/09/27 09:22:49;;;;;;;20.13;13.93;;;19.00;99.90;;;;;;5091345;27;20059;-73
2023/09/27 09:25:15;;;;;;;22.45;14.07;;;19.10;99.90;;;;;;5085962;27;20065;-72
2023/09/27 09:27:41;;;;;;;20.92;14.35;;;19.10;99.90;;;;;;5082883;27;20585;-73
2023/09/27 09:30:09;;;;;;;21.42;15.32;;;19.10;99.90;;;;;;5061015;27;20086;-72
2023/09/27 09:32:50;;;;;;;17.15;12.70;;;19.20;99.90;;;;;;5076572;27;20406;-73
2023/09/27 09:35:32;;;;;;;19.50;13.75;;;19.20;99.90;;;;;;5084379;27;20135;-73
2023/09/27 09:38:02;;;;;;;18.80;13.65;;;19.20;99.90;;;;;;5076645;27;20383;-73
2023/09/27 09:40:28;;;;;;;21.63;13.95;;;19.30;99.90;;;;;;5085289;27;20131;-73
2023/09/27 09:42:57;;;;;;;18.55;14.05;;;19.30;99.90;;;;;;5073580;27;20059;-72
2023/09/27 09:45:23;;;;;;;22.30;14.63;;;19.30;99.90;;;;;;5073260;27;20043;-73
2023/09/27 09:47:51;;;;;;;24.30;13.73;;;19.30;99.90;;;;;;5089395;27;20047;-73
2023/09/27 09:50:18;;;;;;;20.67;13.10;;;19.30;99.90;;;;;;5093521;27;20054;-72
2023/09/27 09:52:56;;;;;;;17.92;12.80;;;19.30;99.90;;;;;;5093836;27;20093;-72
2023/09/27 09:55:24;;;;;;;18.88;13.23;;;19.30;99.90;;;;;;5094864;27;20048;-74
2023/09/27 09:58:31;;;;;;;19.50;14.93;;;19.40;99.90;;;;;;5090713;27;20699;-73
2023/09/27 10:01:00;;;;;;;20.35;15.95;;;19.50;99.90;;;;;;5091636;27;20093;-73
2023/09/27 10:03:33;;;;;;;24.08;15.90;;;19.60;99.90;;;;;;5092806;27;20054;-72
2023/09/27 10:06:05;;;;;;;23.23;17.08;;;19.70;99.90;;;;;;5101418;27;20059;-74
2023/09/27 10:08:39;;;;;;;21.17;15.52;;;19.70;99.90;;;;;;5082741;27;20050;-74
2023/09/27 10:11:05;;;;;;;27.00;17.63;;;19.70;99.90;;;;;;5079296;27;20048;-74
2023/09/27 10:13:39;;;;;;;19.20;15.48;;;19.70;99.90;;;;;;5091174;27;20074;-73
2023/09/27 10:16:08;;;;;;;20.08;14.88;;;19.80;99.90;;;;;;5096647;27;20055;-73
2023/09/27 10:18:38;;;;;;;25.75;15.93;;;19.80;99.90;;;;;;5093223;27;21261;-74
2023/09/27 10:21:05;;;;;;;20.35;14.82;;;19.90;99.90;;;;;;5092269;27;20578;-73
2023/09/27 10:24:00;;;;;;;20.10;14.50;;;20.00;99.90;;;;;;5086957;27;20040;-74
2023/09/27 10:26:26;;;;;;;22.67;17.67;;;20.10;99.90;;;;;;5084062;27;20078;-74
2023/09/27 10:29:23;;;;;;;22.23;17.88;;;20.10;99.90;;;;;;5080490;27;21307;-74
2023/09/27 10:32:01;;;;;;;26.08;21.23;;;20.20;99.90;;;;;;5098372;27;20048;-75
2023/09/27 10:34:30;;;;;;;21.02;18.42;;;20.20;99.90;;;;;;5082088;27;20082;-75
2023/09/27 10:37:00;;;;;;;21.38;17.33;;;20.30;99.90;;;;;;5080099;27;20054;-73
2023/09/27 10:39:26;;;;;;;20.40;15.70;;;20.40;99.90;;;;;;5078927;27;20361;-75
2023/09/27 10:41:53;;;;;;;17.42;14.55;;;20.60;99.90;;;;;;5058918;27;20589;-74
2023/09/27 10:44:37;;;;;;;19.52;14.35;;;20.80;99.90;;;;;;5082529;27;20039;-74
2023/09/27 10:47:04;;;;;;;24.67;15.05;;;20.90;99.90;;;;;;5063373;27;20062;-74
2023/09/27 10:49:38;;;;;;;18.70;13.55;;;21.00;99.90;;;;;;5080475;27;20055;-74
2023/09/27 10:52:18;;;;;;;17.92;13.02;;;21.10;99.90;;;;;;5093129;27;20043;-74
2023/09/27 10:54:44;;;;;;;17.40;11.75;;;21.20;99.70;;;;;;5094332;27;20107;-74
2023/09/27 10:57:12;;;;;;;15.18;11.35;;;21.40;99.10;;;;;;5095720;27;20078;-74
2023/09/27 10:59:37;;;;;;;16.63;12.07;;;21.80;98.20;;;;;;5101852;27;20484;-74
2023/09/27 11:02:03;;;;;;;18.80;12.32;;;21.90;97.20;;;;;;5076686;27;20094;-74
2023/09/27 11:04:32;;;;;;;19.23;11.32;;;22.20;96.40;;;;;;5092865;27;20755;-75
2023/09/27 11:06:58;;;;;;;17.70;12.07;;;22.50;95.60;;;;;;5075409;27;20577;-75
2023/09/27 11:09:26;;;;;;;17.83;11.60;;;22.60;94.90;;;;;;5093683;27;20047;-75
2023/09/27 11:11:54;;;;;;;18.65;11.60;;;22.60;94.40;;;;;;5073938;27;20043;-75
2023/09/27 11:14:31;;;;;;;16.13;10.25;;;22.60;94.20;;;;;;5094839;27;20073;-75
2023/09/27 11:17:16;;;;;;;16.58;10.85;;;23.00;93.30;;;;;;5092192;27;20124;-74
2023/09/27 11:19:41;;;;;;;14.98;11.05;;;23.30;92.70;;;;;;5090830;27;20048;-74
2023/09/27 11:22:30;;;;;;;13.27;10.02;;;23.80;90.80;;;;;;5075056;27;20497;-74
2023/09/27 11:24:56;;;;;;;14.73;9.88;;;24.30;87.50;;;;;;5093667;27;20047;-74
2023/09/27 11:27:23;;;;;;;14.85;8.88;;;24.60;84.60;;;;;;5085709;27;20055;-74
2023/09/27 11:29:53;;;;;;;12.25;8.35;;;25.20;81.70;;;;;;5079045;27;20043;-74
2023/09/27 11:32:22;;;;;;;13.02;7.35;;;25.40;73.10;;;;;;5077374;27;21024;-74
2023/09/27 11:34:58;;;;;;;10.80;7.32;;;25.60;66.70;;;;;;5091724;27;20039;-75
2023/09/27 11:37:47;;;;;;;10.05;5.90;;;25.80;56.10;;;;;;5088514;27;20527;-75
2023/09/27 11:40:35;;;;;;;10.07;6.25;;;26.00;57.80;;;;;;5076046;27;20052;-74
2023/09/27 11:43:21;;;;;;;11.10;5.75;;;26.20;54.50;;;;;;5075680;27;20113;-75
2023/09/27 11:45:57;;;;;;;11.23;5.60;;;26.50;51.40;;;;;;5096457;27;20080;-73
2023/09/27 11:48:34;;;;;;;9.02;5.88;;;26.60;46.50;;;;;;5046412;27;20104;-73
2023/09/27 11:51:09;;;;;;;13.10;5.72;;;26.90;27.60;;;;;;5078354;27;20406;-75
2023/09/27 11:53:46;;;;;;;11.75;5.60;;;27.10;29.90;;;;;;5092839;27;20052;-75
2023/09/27 11:56:26;;;;;;;7.88;5.18;;;27.40;21.80;;;;;;5068333;27;20105;-73
2023/09/27 11:59:10;;;;;;;8.32;4.45;;;27.70;6.40;;;;;;5042757;27;20059;-75
2023/09/27 12:01:44;;;;;;;7.03;4.15;;;28.10;1.00;;;;;;5080185;27;20381;-75
2023/09/27 12:04:20;;;;;;;9.65;4.43;;;28.20;1.00;;;;;;5094225;27;20122;-73
2023/09/27 12:07:00;;;;;;;11.60;4.43;;;28.20;1.00;;;;;;5111577;27;20109;-75
2023/09/27 12:09:28;;;;;;;8.65;3.67;;;28.40;1.00;;;;;;5064783;27;20569;-73
2023/09/27 12:12:03;;;;;;;6.53;4.57;;;28.30;1.00;;;;;;5074611;27;20570;-74
2023/09/27 12:14:35;;;;;;;7.32;4.47;;;28.50;1.00;;;;;;5078505;27;20039;-72
2023/09/27 12:17:07;;;;;;;8.32;4.10;;;28.80;1.00;;;;;;5032786;27;20052;-73
2023/09/27 12:19:39;;;;;;;7.38;3.63;;;29.10;1.00;;;;;;5062770;27;20047;-74
2023/09/27 12:22:53;;;;;;;5.97;3.55;;;29.10;1.00;;;;;;5075570;27;20101;-82
2023/09/27 12:25:26;;;;;;;7.07;3.42;;;28.90;99.90;;;;;;5110931;27;20384;-79
2023/09/27 12:28:21;;;;;;;7.22;3.25;;;28.40;1.00;;;;;;5092964;27;20073;-79
2023/09/27 12:30:51;;;;;;;5.82;3.30;;;28.20;1.00;;;;;;5094059;27;20055;-82
2023/09/27 12:36:59;;;;;;;7.72;3.78;;;28.00;1.00;;;;;;5110996;27;20045;-79
2023/09/27 12:40:30;;;;;;;6.60;3.85;;;27.70;1.00;;;;;;5111665;27;20123;-80
2023/09/27 12:43:34;;;;;;;7.32;4.00;;;27.50;1.00;;;;;;5080708;27;20096;-81
2023/09/27 12:46:02;;;;;;;7.18;3.50;;;27.30;1.00;;;;;;5093716;27;20043;-78
2023/09/27 12:48:28;;;;;;;7.32;3.60;;;27.60;1.00;;;;;;5078064;27;20047;-80
2023/09/27 12:51:23;;;;;;;10.55;4.10;;;28.00;1.00;;;;;;5094035;27;20059;-79
2023/09/27 12:54:47;;;;;;;11.88;3.97;;;28.20;1.00;;;;;;5110062;27;20131;-79
2023/09/27 12:57:50;;;;;;;8.38;3.80;;;28.40;1.00;;;;;;5094859;27;20059;-80
2023/09/27 13:00:17;;;;;;;6.18;3.13;;;28.70;1.00;;;;;;5081760;27;20051;-78
2023/09/27 13:03:03;;;;;;;6.10;3.38;;;29.00;1.00;;;;;;5082477;27;20062;-79
2023/09/27 13:05:54;;;;;;;7.47;2.70;;;29.30;99.90;;;;;;5093934;27;20052;-79
2023/09/27 13:09:01;;;;;;;5.68;2.83;;;29.30;99.90;;;;;;5097236;27;20078;-79
2023/09/27 13:11:27;;;;;;;5.07;2.90;;;29.50;99.90;;;;;;5088871;27;20247;-80
2023/09/27 13:13:53;;;;;;;4.13;2.58;;;29.30;99.90;;;;;;5063786;27;20650;-78
2023/09/27 13:16:56;;;;;;;7.85;2.95;;;29.10;99.90;;;;;;5081662;27;20081;-81
2023/09/27 13:19:22;;;;;;;4.65;2.70;;;28.70;99.90;;;;;;5093714;27;20111;-79
2023/09/27 13:21:47;;;;;;;7.95;2.58;;;28.40;99.90;;;;;;5066715;27;20051;-79
2023/09/27 13:24:41;;;;;;;5.63;2.85;;;27.90;99.90;;;;;;5091859;27;20035;-79
2023/09/27 13:27:34;;;;;;;6.05;2.70;;;28.00;99.90;;;;;;5098758;27;20181;-79
2023/09/27 13:30:00;;;;;;;7.53;2.67;;;27.80;1.00;;;;;;5096108;27;20482;-79
2023/09/27 13:32:47;;;;;;;8.82;2.50;;;27.60;1.00;;;;;;5083285;27;20047;-81
2023/09/27 13:35:33;;;;;;;5.43;2.25;;;27.40;1.00;;;;;;5112836;27;20108;-80
2023/09/27 13:38:20;;;;;;;4.47;2.33;;;27.20;1.00;;;;;;5099926;27;20138;-79
2023/09/27 13:40:47;;;;;;;7.28;2.70;;;27.80;1.00;;;;;;5100996;27;20093;-79
2023/09/27 13:43:14;;;;;;;6.35;3.08;;;26.90;1.00;;;;;;5079699;27;20054;-78
2023/09/27 13:46:02;;;;;;;6.00;2.28;;;26.80;1.00;;;;;;5116879;27;20051;-79
2023/09/27 13:48:53;;;;;;;7.70;2.67;;;26.50;1.00;;;;;;5095758;27;20038;-78
2023/09/27 13:51:44;;;;;;;3.75;2.30;;;26.70;1.00;;;;;;5095667;27;20054;-78
2023/09/27 13:54:45;;;;;;;6.85;2.65;;;26.70;1.00;;;;;;5082012;27;20126;-80
2023/09/27 13:57:32;;;;;;;5.45;2.65;;;26.70;1.00;;;;;;5097054;27;20050;-80
2023/09/27 14:00:00;;;;;;;;;;;26.60;1.00;;;;;;5101023;27;20059;-80
2023/09/27 14:02:26;;;;;;;5.10;2.83;;;26.50;1.00;;;;;;5083128;27;20010;-79
2023/09/27 14:04:53;;;;;;;5.55;3.05;;;26.50;1.00;;;;;;5098398;27;20138;-78
2023/09/27 14:10:51;;;;;;;6.90;3.28;;;26.20;1.00;;;;;;5099305;27;20095;-80
2023/09/27 14:13:37;;;;;;;7.45;3.40;;;26.00;1.00;;;;;;5112466;27;20046;-79
2023/09/27 14:16:02;;;;;;;;;;;25.80;1.00;;;;;;5112844;27;20067;-82
2023/09/27 14:18:54;;;;;;;6.25;3.30;;;25.50;1.00;;;;;;5093866;27;19931;-79
2023/09/27 14:21:21;;;;;;;5.45;3.72;;;25.30;1.00;;;;;;5094762;27;20051;-75
2023/09/27 14:23:48;;;;;;;6.68;4.63;;;25.00;5.30;;;;;;5069919;27;20074;-74
2023/09/27 14:26:16;;;;;;;8.80;4.90;;;24.90;11.10;;;;;;5056610;27;20051;-75
2023/09/27 14:28:43;;;;;;;8.68;4.88;;;24.80;13.10;;;;;;5078401;27;20919;-74
2023/09/27 14:31:10;;;;;;;6.82;4.30;;;24.70;16.60;;;;;;5090374;27;20075;-74
2023/09/27 14:33:39;;;;;;;7.68;4.35;;;24.60;19.10;;;;;;5075463;27;20131;-75
2023/09/27 14:36:08;;;;;;;6.50;4.55;;;24.70;21.00;;;;;;5085224;27;20061;-74
2023/09/27 14:38:35;;;;;;;7.65;4.72;;;24.60;22.70;;;;;;5061656;27;20055;-74
2023/09/27 14:41:13;;;;;;;5.90;4.32;;;24.60;23.40;;;;;;5095236;27;20053;-75
2023/09/27 14:43:43;;;;;;;6.18;3.95;;;24.60;22.80;;;;;;5109169;27;20086;-74
2023/09/27 14:46:13;;;;;;;6.85;3.85;;;24.60;23.90;;;;;;5065834;27;20043;-74
2023/09/27 14:48:49;;;;;;;6.95;3.80;;;24.60;24.50;;;;;;5099680;27;20083;-74
2023/09/27 14:51:16;;;;;;;6.88;4.05;;;24.50;26.50;;;;;;5067627;27;20130;-75
2023/09/27 14:53:44;;;;;;;8.57;4.35;;;24.40;28.20;;;;;;5081292;27;20689;-75
2023/09/27 14:56:12;;;;;;;7.82;4.30;;;24.30;29.10;;;;;;5077845;27;20084;-75
2023/09/27 14:58:41;;;;;;;8.40;4.50;;;24.20;32.40;;;;;;5094673;27;20047;-74
2023/09/27 15:01:08;;;;;;;7.00;5.03;;;24.10;35.90;;;;;;5077547;27;20036;-75
2023/09/27 15:03:49;;;;;;;9.75;4.93;;;24.00;39.40;;;;;;5065361;27;20419;-80
2023/09/27 15:07:16;;;;;;;9.95;5.15;;;24.00;40.60;;;;;;5109816;27;20409;-76
2023/09/27 15:13:37;;;;;;;8.23;5.63;;;23.90;45.20;;;;;;5099847;27;20050;-73
2023/09/27 15:16:39;;;;;;;9.50;5.40;;;23.70;47.80;;;;;;5091063;27;20506;-73
2023/09/27 15:19:25;;;;;;;9.07;5.82;;;23.60;49.20;;;;;;5106845;27;20051;-73
2023/09/27 15:22:33;;;;;;;7.53;5.35;;;23.50;51.30;;;;;;5087789;27;20143;-73
2023/09/27 15:24:59;;;;;;;9.95;5.57;;;23.50;54.50;;;;;;5079011;27;20547;-74
2023/09/27 15:27:45;;;;;;;6.63;5.00;;;23.40;55.90;;;;;;5090066;27;20686;-73
2023/09/27 15:30:31;;;;;;;;;;;23.40;57.90;;;;;;5043251;27;20308;-73